createdAt,value
2023-02-09T00:02:56.847Z,83.20
2023-02-09T00:08:15.513Z,82.00
2023-02-09T00:13:36.183Z,78.90
2023-02-09T00:18:49.326Z,78.90
2023-02-09T00:23:59.280Z,91.80
2023-02-09T00:29:03.604Z,108.70
2023-02-09T00:34:10.742Z,112.80
2023-02-09T00:39:14.427Z,112.30
2023-02-09T00:44:18.154Z,105.30
2023-02-09T00:49:21.695Z,95.60
2023-02-09T00:54:25.750Z,101.60
2023-02-09T00:59:29.335Z,95.90
2023-02-09T01:04:33.153Z,98.60
2023-02-09T01:09:37.367Z,101.80
2023-02-09T01:14:44.184Z,98.30
2023-02-09T01:19:52.007Z,94.90
2023-02-09T01:24:56.275Z,99.50
2023-02-09T01:30:00.732Z,97.80
2023-02-09T01:35:05.662Z,95.30
2023-02-09T01:40:11.559Z,93.60
2023-02-09T01:45:28.392Z,91.90
2023-02-09T01:50:36.991Z,97.30
2023-02-09T01:55:44.587Z,94.70
2023-02-09T02:00:49.027Z,90.50
2023-02-09T02:05:56.645Z,90.50
2023-02-09T02:11:00.285Z,102.00
2023-02-09T02:16:19.486Z,96.40
2023-02-09T02:21:56.217Z,94.00
2023-02-09T02:27:01.810Z,103.50
2023-02-09T02:32:15.743Z,104.50
2023-02-09T02:37:49.123Z,95.70
2023-02-09T02:43:00.038Z,96.10
2023-02-09T02:48:16.399Z,97.70
2023-02-09T02:53:22.319Z,91.20
2023-02-09T02:58:28.212Z,96.60
2023-02-09T03:03:34.380Z,106.30
2023-02-09T03:08:48.504Z,107.70
2023-02-09T03:14:09.076Z,99.10
2023-02-09T03:19:28.830Z,92.90
2023-02-09T03:24:39.860Z,95.50
2023-02-09T03:29:45.794Z,92.50
2023-02-09T03:34:49.957Z,96.40
2023-02-09T03:39:53.471Z,92.50
2023-02-09T03:44:56.975Z,92.70
2023-02-09T03:50:00.503Z,97.10
2023-02-09T03:55:04.725Z,92.50
2023-02-09T04:00:11.174Z,93.00
2023-02-09T04:05:19.299Z,84.10
2023-02-09T04:10:22.712Z,91.00
2023-02-09T04:15:26.260Z,88.90
2023-02-09T04:20:29.753Z,89.80
2023-02-09T04:25:33.343Z,95.50
2023-02-09T04:30:36.912Z,91.10
2023-02-09T04:35:40.892Z,84.10
2023-02-09T04:40:44.654Z,86.00
2023-02-09T04:45:48.391Z,87.60
2023-02-09T04:50:52.621Z,92.40
2023-02-09T04:55:56.238Z,96.10
2023-02-09T05:00:59.941Z,92.20
2023-02-09T05:06:05.425Z,91.30
2023-02-09T05:11:09.099Z,92.90
2023-02-09T05:16:17.073Z,89.30
2023-02-09T05:21:20.425Z,94.60
2023-02-09T05:26:24.077Z,93.30
2023-02-09T05:31:27.933Z,92.80
2023-02-09T05:36:31.900Z,91.40
2023-02-09T05:41:53.755Z,96.20
2023-02-09T05:46:57.638Z,88.10
2023-02-09T05:52:01.293Z,94.60
2023-02-09T05:57:07.048Z,93.40
2023-02-09T06:02:28.354Z,84.10
2023-02-09T06:07:36.374Z,87.70
2023-02-09T06:12:41.418Z,87.10
2023-02-09T06:17:44.844Z,85.60
2023-02-09T06:22:48.613Z,89.70
2023-02-09T06:27:52.069Z,88.00
2023-02-09T06:32:56.233Z,86.80
2023-02-09T06:37:59.982Z,80.70
2023-02-09T06:43:03.675Z,82.90
2023-02-09T06:48:08.151Z,86.20
2023-02-09T06:53:12.073Z,94.10
2023-02-09T06:58:15.528Z,88.10
2023-02-09T07:03:19.087Z,93.00
2023-02-09T07:08:22.645Z,87.50
2023-02-09T07:13:27.410Z,90.50
2023-02-09T07:18:31.523Z,80.70
2023-02-09T07:23:35.790Z,70.30
2023-02-09T07:28:39.382Z,60.90
2023-02-09T07:33:43.406Z,56.20
2023-02-09T07:38:46.888Z,47.80
2023-02-09T07:43:51.023Z,43.20
2023-02-09T07:48:58.580Z,37.40
2023-02-09T07:54:04.150Z,33.60
2023-02-09T07:59:13.767Z,31.50
2023-02-09T08:04:17.299Z,32.40
2023-02-09T08:09:21.064Z,38.60
2023-02-09T08:14:28.266Z,34.30
2023-02-09T08:19:31.925Z,22.60
2023-02-09T08:24:35.423Z,19.00
2023-02-09T08:29:39.001Z,22.70
2023-02-09T08:34:42.491Z,19.80
2023-02-09T08:39:46.033Z,20.10
2023-02-09T08:44:49.647Z,19.00
2023-02-09T08:49:53.435Z,20.90
2023-02-09T08:54:56.998Z,20.40
2023-02-09T09:00:00.402Z,21.80
2023-02-09T09:05:03.975Z,19.80
2023-02-09T09:10:08.813Z,17.30
2023-02-09T09:15:12.205Z,19.40
2023-02-09T09:20:16.011Z,18.70
2023-02-09T09:25:19.795Z,21.10
2023-02-09T09:30:23.227Z,19.40
2023-02-09T09:35:27.887Z,14.60
2023-02-09T09:40:33.411Z,17.40
2023-02-09T09:45:39.323Z,15.60
2023-02-09T09:50:44.289Z,11.50
2023-02-09T09:55:51.538Z,14.00
2023-02-09T10:00:55.497Z,12.00
2023-02-09T10:06:09.521Z,11.50
2023-02-09T10:11:15.262Z,14.00
2023-02-09T10:16:24.280Z,13.50
2023-02-09T10:21:30.110Z,11.20
2023-02-09T10:26:35.642Z,14.00
2023-02-09T10:31:42.523Z,11.70
2023-02-09T10:36:51.572Z,10.60
2023-02-09T10:41:57.248Z,11.60
2023-02-09T10:47:12.047Z,14.10
2023-02-09T10:52:19.112Z,10.80
2023-02-09T10:57:26.802Z,12.90
2023-02-09T11:02:40.522Z,11.00
2023-02-09T11:07:44.889Z,12.30
2023-02-09T11:12:48.448Z,13.10
2023-02-09T11:17:56.065Z,17.00
2023-02-09T11:23:28.229Z,16.70
2023-02-09T11:28:47.874Z,10.70
2023-02-09T11:34:21.318Z,11.90
2023-02-09T11:40:11.294Z,10.50
2023-02-09T11:45:52.455Z,10.10
2023-02-09T11:51:13.147Z,11.40
2023-02-09T11:56:25.802Z,11.20
2023-02-09T12:01:51.049Z,8.90
2023-02-09T12:07:38.429Z,10.90
2023-02-09T12:13:09.266Z,12.90
2023-02-09T12:18:33.446Z,10.20
2023-02-09T12:23:51.857Z,10.30
2023-02-09T12:35:53.821Z,16.90
2023-02-09T12:41:49.786Z,15.90
2023-02-09T12:47:36.959Z,8.90
2023-02-09T12:59:31.760Z,9.50
2023-02-09T13:05:05.802Z,16.00
2023-02-09T13:10:34.136Z,9.70
2023-02-09T13:16:05.831Z,10.00
2023-02-09T13:21:35.757Z,11.10
2023-02-09T13:27:21.631Z,16.00
2023-02-09T13:32:40.146Z,10.30
2023-02-09T13:38:05.090Z,12.40
2023-02-09T13:43:53.637Z,11.80
2023-02-09T13:49:34.184Z,14.00
2023-02-09T13:54:52.990Z,22.10
2023-02-09T14:00:35.646Z,13.70
2023-02-09T14:06:10.047Z,17.70
2023-02-09T14:11:45.995Z,13.10
2023-02-09T14:17:24.905Z,15.90
2023-02-09T14:23:03.838Z,16.70
2023-02-09T14:28:27.766Z,15.30
2023-02-09T14:34:00.459Z,13.80
2023-02-09T14:46:19.161Z,14.70
2023-02-09T14:52:46.798Z,19.30
2023-02-09T14:58:36.092Z,28.80
2023-02-09T15:04:00.798Z,23.30
2023-02-09T15:09:33.861Z,20.70
2023-02-09T15:14:50.619Z,20.00
2023-02-09T15:20:39.383Z,21.40
2023-02-09T15:26:38.955Z,19.10
2023-02-09T15:32:32.301Z,18.50
2023-02-09T15:37:56.707Z,18.70
2023-02-09T15:43:36.728Z,21.20
2023-02-09T16:57:44.652Z,37.30
2023-02-09T17:03:43.027Z,42.20
2023-02-09T17:10:17.223Z,41.70
2023-02-09T17:16:29.133Z,35.10
2023-02-09T17:28:58.103Z,36.70
2023-02-09T17:35:53.064Z,36.10
2023-02-09T17:42:52.566Z,30.60
2023-02-09T17:48:58.278Z,32.20
2023-02-09T18:02:49.500Z,42.00
2023-02-09T18:05:32.700Z,40.20
2023-02-09T18:07:53.892Z,53.30
2023-02-09T18:12:57.626Z,58.60
2023-02-09T18:18:01.474Z,45.40
2023-02-09T18:23:05.600Z,54.30
2023-02-09T18:28:09.406Z,37.60
2023-02-09T18:33:14.831Z,38.40
2023-02-09T18:38:18.536Z,31.30
2023-02-09T18:43:22.147Z,44.70
2023-02-09T18:48:25.574Z,50.90
2023-02-09T18:53:28.948Z,30.70
2023-02-09T18:58:32.740Z,28.60
2023-02-09T19:03:36.391Z,28.30
2023-02-09T19:08:40.670Z,66.40
2023-02-09T19:14:05.307Z,33.40
2023-02-09T19:20:13.759Z,30.00
2023-02-09T19:27:12.224Z,30.20
2023-02-09T20:07:04.351Z,36.80
2023-02-09T20:20:22.280Z,44.40
2023-02-09T20:40:57.684Z,29.30
2023-02-09T21:35:11.764Z,20.70
2023-02-09T21:41:45.943Z,19.40
2023-02-09T21:54:38.223Z,18.10
2023-02-09T22:00:55.413Z,20.90
2023-02-09T22:07:46.978Z,20.40
2023-02-09T22:40:05.195Z,23.30
2023-02-09T22:46:32.807Z,30.90
2023-02-09T22:51:37.772Z,34.20
2023-02-09T22:56:41.289Z,34.80
2023-02-09T23:01:45.397Z,33.80
2023-02-09T23:06:48.889Z,34.90
2023-02-09T23:11:52.381Z,38.00
2023-02-09T23:16:55.893Z,38.40
2023-02-09T23:23:41.172Z,36.90
2023-02-09T23:30:35.210Z,27.30
2023-02-09T23:37:18.620Z,26.80
2023-02-09T23:48:03.531Z,23.90
2023-02-09T23:53:13.404Z,22.00
2023-02-09T23:58:28.982Z,19.60
